Monday, December 5, 2016, 11:35 AM EST
Back to Local

KCXY, Harrisburg Capital City

Location: New Cumberland, PA, United States Lat: 40.217
Local Time: 11:35 AM EST (16:35 GMT) Lon: -76.85
Time Zone: US/Eastern Elev: 347 ft

Show me the last for .
Show Decoded

2016-12-05 10:56 METAR KCXY 051556Z 30004KT 10SM BKN010 07/04 A3002 RMK AO2 SLP167 T00670039 =
2016-12-05 10:45 METAR KCXY 051545Z 30004KT 10SM BKN010 07/03 A3001 RMK AO2 T00670033 =
2016-12-05 09:56 METAR KCXY 051456Z 00000KT 10SM OVC009 06/03 A3002 RMK AO2 SLP168 T00560033
                 51012 =
2016-12-05 08:56 METAR KCXY 051356Z 27004KT 6SM BR OVC008 05/03 A3001 RMK AO2 SLP166 T00500028 =
2016-12-05 07:56 METAR KCXY 051256Z 23006KT 6SM BR OVC009 05/03 A3000 RMK AO2 SLP160 T00500028 =
2016-12-05 06:56 METAR KCXY 051156Z 27003KT 10SM OVC009 04/03 A2998 RMK AO2 RAB04E36 SLP156 P0001
                 60012 70014 I6000 T00440028 10044 20022 53001 =
2016-12-05 05:56 METAR KCXY 051056Z AUTO 00000KT 6SM BR OVC009 03/02 A2997 RMK AO2 RAE53 CIG
                 006V011 SLP153 P0001 T00330022 TSNO =
2016-12-05 04:56 METAR KCXY 050956Z AUTO 12003KT 4SM -RA BR OVC009 03/02 A2998 RMK AO2 RAB06 CIG
                 006V012 SLP156 P0001 T00280017 =
2016-12-05 04:44 METAR KCXY 050944Z AUTO 09004KT 3SM -RA BR OVC009 03/02 A2998 RMK AO2 RAB06 CIG
                 004V013 P0001 T00280017 =
2016-12-05 04:18 METAR KCXY 050918Z AUTO 14004KT 2 1/2SM -RA BR OVC007 03/02 A2998 RMK AO2 RAB06
                 CIG 006V011 P0000 T00280017 =
2016-12-05 03:56 METAR KCXY 050856Z AUTO 10004KT 5SM BR OVC007 03/01 A2998 RMK AO2 RAE28 CIG
                 006V010 SLP155 P0001 60009 I1000 I3000 T00280011 56015 =
2016-12-05 03:28 METAR KCXY 050828Z AUTO 11005KT 4SM BR OVC009 02/01 A2998 RMK AO2 RAE28 CIG
                 006V012 P0001 I1000 T00220011 =
2016-12-05 02:56 METAR KCXY 050756Z AUTO 12007KT 9SM -RA OVC011 02/01 A3000 RMK AO2 CIG 008V014
                 SLP161 P0004 T00220006 =
2016-12-05 02:32 METAR KCXY 050732Z AUTO 12006KT 5SM RA BR OVC011 02/00 A3000 RMK AO2 P0003
                 T00220000 =
2016-12-05 02:05 METAR KCXY 050705Z AUTO 11006KT 7SM -RA BKN009 BKN026 OVC038 02/01 A2999 RMK AO2
                 P0001 T00220006 =
2016-12-05 01:56 METAR KCXY 050656Z AUTO 12005KT 5SM -RA BR FEW011 SCT029 OVC039 02/00 A2999 RMK
                 AO2 SLP160 P0004 T00220000 =
2016-12-05 00:56 METAR KCXY 050556Z AUTO 18005KT 7SM RA OVC039 04/01 A3002 RMK AO2 RAB0458 SLP170
                 P0002 60002 T00390006 10056 20039 55022 =
2016-12-04 23:56 METAR KCXY 050456Z AUTO 15010KT 10SM BKN048 OVC055 05/00 A3002 RMK AO2 RAE48
                 SLP169 P0000 T00500000 400780050 =
2016-12-04 22:56 METAR KCXY 050356Z AUTO 15007KT 10SM -RA OVC044 06/M01 A3007 RMK AO2 RAB41
                 SLP185 P0000 T00561011 =
2016-12-04 21:56 METAR KCXY 050256Z AUTO 13006KT 10SM SCT075 BKN090 OVC110 06/M02 A3009 RMK AO2
                 SLP192 T00561017 57021 =
2016-12-04 20:56 METAR KCXY 050156Z 15006KT 10SM FEW120 06/M02 A3011 RMK AO2 SLP198 T00561022 =
2016-12-04 19:56 METAR KCXY 050056Z 16003KT 10SM CLR 06/M02 A3014 RMK AO2 SLP208 T00561017 =
2016-12-04 18:56 METAR KCXY 042356Z 18003KT 10SM CLR 06/M02 A3015 RMK AO2 SLP214 T00561022 10078
                 20056 56013 =
2016-12-04 17:56 METAR KCXY 042256Z 19003KT 10SM CLR 06/M02 A3016 RMK AO2 SLP217 T00611022 =
2016-12-04 16:56 METAR KCXY 042156Z 00000KT 10SM CLR 06/M02 A3016 RMK AO2 SLP217 T00611022 =
2016-12-04 15:56 METAR KCXY 042056Z 22003KT 10SM CLR 07/M03 A3019 RMK AO2 SLP226 T00671028 55011
                 =
2016-12-04 14:56 METAR KCXY 041956Z 00000KT 10SM CLR 07/M04 A3018 RMK AO2 SLP224 T00721039 =
2016-12-04 13:56 METAR KCXY 041856Z 32003KT 10SM CLR 08/M04 A3021 RMK AO2 SLP232 T00781039 =
2016-12-04 12:56 METAR KCXY 041756Z VRB04KT 10SM SCT041 07/M04 A3022 RMK AO2 SLP237 T00721039
                 10078 20056 58016 =
2016-12-04 11:56 METAR KCXY 041656Z VRB06KT 10SM BKN041 08/M03 A3024 RMK AO2 SLP243 T00781033 =

Support USWX by starting your Amazon purchase here.